sensor_id;sensor_type;location;lat;lon;timestamp;P1;durP1;ratioP1;P2;durP2;ratioP2
47161;SDS011;32921;53.256;8.198;2024-01-07T00:01:26;542.20;;;504.75;;
47161;SDS011;32921;53.256;8.198;2024-01-07T00:03:52;490.60;;;457.35;;
47161;SDS011;32921;53.256;8.198;2024-01-07T00:06:17;504.30;;;467.88;;
47161;SDS011;32921;53.256;8.198;2024-01-07T00:08:43;546.08;;;508.35;;
47161;SDS011;32921;53.256;8.198;2024-01-07T00:11:09;466.25;;;434.85;;
47161;SDS011;32921;53.256;8.198;2024-01-07T00:13:35;561.92;;;523.40;;
47161;SDS011;32921;53.256;8.198;2024-01-07T00:16:00;537.75;;;500.50;;
47161;SDS011;32921;53.256;8.198;2024-01-07T00:18:26;612.75;;;570.00;;
47161;SDS011;32921;53.256;8.198;2024-01-07T00:20:52;535.78;;;498.88;;
47161;SDS011;32921;53.256;8.198;2024-01-07T00:23:18;492.02;;;458.63;;
47161;SDS011;32921;53.256;8.198;2024-01-07T00:25:45;551.33;;;513.67;;
47161;SDS011;32921;53.256;8.198;2024-01-07T00:28:14;493.75;;;460.15;;
47161;SDS011;32921;53.256;8.198;2024-01-07T00:30:39;598.75;;;555.65;;
47161;SDS011;32921;53.256;8.198;2024-01-07T00:33:05;453.60;;;421.27;;
47161;SDS011;32921;53.256;8.198;2024-01-07T00:35:31;535.00;;;497.55;;
47161;SDS011;32921;53.256;8.198;2024-01-07T00:37:56;509.67;;;473.58;;
47161;SDS011;32921;53.256;8.198;2024-01-07T00:40:25;531.97;;;495.92;;
47161;SDS011;32921;53.256;8.198;2024-01-07T00:42:51;521.20;;;484.48;;
47161;SDS011;32921;53.256;8.198;2024-01-07T00:45:20;542.00;;;504.50;;
47161;SDS011;32921;53.256;8.198;2024-01-07T00:47:46;561.58;;;523.10;;
47161;SDS011;32921;53.256;8.198;2024-01-07T00:50:12;523.13;;;487.10;;
47161;SDS011;32921;53.256;8.198;2024-01-07T00:52:38;460.30;;;429.05;;
47161;SDS011;32921;53.256;8.198;2024-01-07T00:55:04;492.15;;;458.55;;
47161;SDS011;32921;53.256;8.198;2024-01-07T00:57:31;487.80;;;454.73;;
47161;SDS011;32921;53.256;8.198;2024-01-07T00:59:57;530.40;;;494.08;;
47161;SDS011;32921;53.256;8.198;2024-01-07T01:02:22;518.78;;;483.65;;
47161;SDS011;32921;53.256;8.198;2024-01-07T01:04:48;540.80;;;503.58;;
47161;SDS011;32921;53.256;8.198;2024-01-07T01:07:14;529.83;;;493.15;;
47161;SDS011;32921;53.256;8.198;2024-01-07T01:09:39;542.38;;;505.35;;
47161;SDS011;32921;53.256;8.198;2024-01-07T01:12:05;501.38;;;466.75;;
47161;SDS011;32921;53.256;8.198;2024-01-07T01:14:31;492.13;;;458.75;;
47161;SDS011;32921;53.256;8.198;2024-01-07T01:16:56;436.58;;;407.08;;
47161;SDS011;32921;53.256;8.198;2024-01-07T01:19:23;508.42;;;473.30;;
47161;SDS011;32921;53.256;8.198;2024-01-07T01:21:49;475.70;;;443.15;;
47161;SDS011;32921;53.256;8.198;2024-01-07T01:24:15;457.38;;;426.27;;
47161;SDS011;32921;53.256;8.198;2024-01-07T01:26:40;470.25;;;438.55;;
47161;SDS011;32921;53.256;8.198;2024-01-07T01:29:06;412.75;;;385.27;;
47161;SDS011;32921;53.256;8.198;2024-01-07T01:31:32;480.05;;;444.83;;
47161;SDS011;32921;53.256;8.198;2024-01-07T01:33:57;420.50;;;392.35;;
47161;SDS011;32921;53.256;8.198;2024-01-07T01:36:23;370.20;;;345.80;;
47161;SDS011;32921;53.256;8.198;2024-01-07T01:38:49;407.10;;;380.05;;
47161;SDS011;32921;53.256;8.198;2024-01-07T01:41:15;416.63;;;388.88;;
47161;SDS011;32921;53.256;8.198;2024-01-07T01:43:41;385.25;;;360.33;;
47161;SDS011;32921;53.256;8.198;2024-01-07T01:46:07;396.27;;;370.17;;
47161;SDS011;32921;53.256;8.198;2024-01-07T01:48:33;459.77;;;427.45;;
47161;SDS011;32921;53.256;8.198;2024-01-07T01:51:00;358.58;;;335.65;;
47161;SDS011;32921;53.256;8.198;2024-01-07T01:53:27;420.92;;;393.27;;
47161;SDS011;32921;53.256;8.198;2024-01-07T01:55:53;391.08;;;365.58;;
47161;SDS011;32921;53.256;8.198;2024-01-07T01:58:22;393.48;;;367.90;;
47161;SDS011;32921;53.256;8.198;2024-01-07T02:00:48;453.13;;;422.73;;
47161;SDS011;32921;53.256;8.198;2024-01-07T02:03:16;355.17;;;332.65;;
47161;SDS011;32921;53.256;8.198;2024-01-07T02:05:42;358.05;;;335.50;;
47161;SDS011;32921;53.256;8.198;2024-01-07T02:08:08;342.02;;;319.95;;
47161;SDS011;32921;53.256;8.198;2024-01-07T02:10:35;303.92;;;285.15;;
47161;SDS011;32921;53.256;8.198;2024-01-07T02:13:02;326.98;;;305.17;;
47161;SDS011;32921;53.256;8.198;2024-01-07T02:15:31;366.65;;;343.10;;
47161;SDS011;32921;53.256;8.198;2024-01-07T02:17:56;277.75;;;260.42;;
47161;SDS011;32921;53.256;8.198;2024-01-07T02:20:23;321.90;;;301.90;;
47161;SDS011;32921;53.256;8.198;2024-01-07T02:22:49;355.60;;;332.85;;
47161;SDS011;32921;53.256;8.198;2024-01-07T02:25:14;344.75;;;323.27;;
47161;SDS011;32921;53.256;8.198;2024-01-07T02:27:40;365.38;;;340.73;;
47161;SDS011;32921;53.256;8.198;2024-01-07T02:30:06;291.20;;;273.45;;
47161;SDS011;32921;53.256;8.198;2024-01-07T02:32:32;314.75;;;295.42;;
47161;SDS011;32921;53.256;8.198;2024-01-07T02:34:59;350.25;;;328.65;;
47161;SDS011;32921;53.256;8.198;2024-01-07T02:37:25;302.23;;;283.88;;
47161;SDS011;32921;53.256;8.198;2024-01-07T02:39:51;345.00;;;323.70;;
47161;SDS011;32921;53.256;8.198;2024-01-07T02:42:16;346.13;;;324.65;;
47161;SDS011;32921;53.256;8.198;2024-01-07T02:44:42;338.85;;;318.00;;
47161;SDS011;32921;53.256;8.198;2024-01-07T02:47:08;339.88;;;319.08;;
47161;SDS011;32921;53.256;8.198;2024-01-07T02:49:33;333.63;;;313.15;;
47161;SDS011;32921;53.256;8.198;2024-01-07T02:51:59;360.88;;;338.50;;
47161;SDS011;32921;53.256;8.198;2024-01-07T02:54:25;349.45;;;327.98;;
47161;SDS011;32921;53.256;8.198;2024-01-07T02:56:50;288.05;;;270.75;;
47161;SDS011;32921;53.256;8.198;2024-01-07T02:59:16;335.95;;;315.42;;
47161;SDS011;32921;53.256;8.198;2024-01-07T03:01:41;338.08;;;317.13;;
47161;SDS011;32921;53.256;8.198;2024-01-07T03:04:08;324.92;;;305.02;;
47161;SDS011;32921;53.256;8.198;2024-01-07T03:06:38;274.60;;;258.08;;
47161;SDS011;32921;53.256;8.198;2024-01-07T03:09:03;287.10;;;270.10;;
47161;SDS011;32921;53.256;8.198;2024-01-07T03:11:29;317.35;;;298.02;;
47161;SDS011;32921;53.256;8.198;2024-01-07T03:13:58;303.58;;;285.30;;
47161;SDS011;32921;53.256;8.198;2024-01-07T03:16:24;332.85;;;312.60;;
47161;SDS011;32921;53.256;8.198;2024-01-07T03:18:51;341.60;;;320.20;;
47161;SDS011;32921;53.256;8.198;2024-01-07T03:21:17;320.23;;;300.85;;
47161;SDS011;32921;53.256;8.198;2024-01-07T03:23:47;291.38;;;274.17;;
47161;SDS011;32921;53.256;8.198;2024-01-07T03:26:13;289.05;;;271.98;;
47161;SDS011;32921;53.256;8.198;2024-01-07T03:28:39;276.55;;;260.02;;
47161;SDS011;32921;53.256;8.198;2024-01-07T03:31:05;275.15;;;258.80;;
47161;SDS011;32921;53.256;8.198;2024-01-07T03:33:39;275.85;;;259.55;;
47161;SDS011;32921;53.256;8.198;2024-01-07T03:36:08;274.80;;;258.50;;
47161;SDS011;32921;53.256;8.198;2024-01-07T03:38:35;265.23;;;249.60;;
47161;SDS011;32921;53.256;8.198;2024-01-07T03:41:01;293.08;;;275.67;;
47161;SDS011;32921;53.256;8.198;2024-01-07T03:43:27;345.77;;;323.50;;
47161;SDS011;32921;53.256;8.198;2024-01-07T03:45:53;270.23;;;254.40;;
47161;SDS011;32921;53.256;8.198;2024-01-07T03:48:19;253.45;;;238.75;;
47161;SDS011;32921;53.256;8.198;2024-01-07T03:50:44;264.17;;;249.00;;
47161;SDS011;32921;53.256;8.198;2024-01-07T03:53:10;293.00;;;274.67;;
47161;SDS011;32921;53.256;8.198;2024-01-07T03:55:36;255.60;;;240.60;;
47161;SDS011;32921;53.256;8.198;2024-01-07T03:58:02;247.80;;;233.15;;
47161;SDS011;32921;53.256;8.198;2024-01-07T04:00:29;269.85;;;252.68;;
47161;SDS011;32921;53.256;8.198;2024-01-07T04:02:55;239.00;;;224.95;;
47161;SDS011;32921;53.256;8.198;2024-01-07T04:05:20;229.35;;;215.75;;
47161;SDS011;32921;53.256;8.198;2024-01-07T04:07:46;348.13;;;325.02;;
47161;SDS011;32921;53.256;8.198;2024-01-07T04:10:11;239.73;;;225.73;;
47161;SDS011;32921;53.256;8.198;2024-01-07T04:12:37;239.95;;;225.52;;
47161;SDS011;32921;53.256;8.198;2024-01-07T04:15:03;235.48;;;221.25;;
47161;SDS011;32921;53.256;8.198;2024-01-07T04:17:29;217.23;;;204.55;;
47161;SDS011;32921;53.256;8.198;2024-01-07T04:19:55;223.85;;;210.55;;
47161;SDS011;32921;53.256;8.198;2024-01-07T04:22:21;247.02;;;232.25;;
47161;SDS011;32921;53.256;8.198;2024-01-07T04:24:46;228.35;;;214.82;;
47161;SDS011;32921;53.256;8.198;2024-01-07T04:27:12;228.10;;;214.50;;
47161;SDS011;32921;53.256;8.198;2024-01-07T04:29:37;216.30;;;203.38;;
47161;SDS011;32921;53.256;8.198;2024-01-07T04:32:03;317.83;;;294.67;;
47161;SDS011;32921;53.256;8.198;2024-01-07T04:34:29;231.23;;;217.40;;
47161;SDS011;32921;53.256;8.198;2024-01-07T04:36:54;227.30;;;213.75;;
47161;SDS011;32921;53.256;8.198;2024-01-07T04:39:20;265.05;;;248.63;;
47161;SDS011;32921;53.256;8.198;2024-01-07T04:41:45;220.93;;;207.73;;
47161;SDS011;32921;53.256;8.198;2024-01-07T04:44:11;224.90;;;211.43;;
47161;SDS011;32921;53.256;8.198;2024-01-07T04:46:39;224.30;;;211.00;;
47161;SDS011;32921;53.256;8.198;2024-01-07T04:49:05;290.20;;;271.23;;
47161;SDS011;32921;53.256;8.198;2024-01-07T04:51:31;215.77;;;202.90;;
47161;SDS011;32921;53.256;8.198;2024-01-07T04:53:57;222.63;;;209.30;;
47161;SDS011;32921;53.256;8.198;2024-01-07T04:56:23;221.10;;;207.75;;
47161;SDS011;32921;53.256;8.198;2024-01-07T04:58:49;309.70;;;287.98;;
47161;SDS011;32921;53.256;8.198;2024-01-07T05:01:14;302.38;;;281.25;;
47161;SDS011;32921;53.256;8.198;2024-01-07T05:03:40;273.83;;;256.25;;
47161;SDS011;32921;53.256;8.198;2024-01-07T05:06:09;263.13;;;245.85;;
47161;SDS011;32921;53.256;8.198;2024-01-07T05:08:35;193.77;;;181.85;;
47161;SDS011;32921;53.256;8.198;2024-01-07T05:11:07;217.55;;;204.13;;
47161;SDS011;32921;53.256;8.198;2024-01-07T05:13:33;222.00;;;208.15;;
47161;SDS011;32921;53.256;8.198;2024-01-07T05:15:59;233.73;;;219.75;;
47161;SDS011;32921;53.256;8.198;2024-01-07T05:18:25;206.02;;;193.40;;
47161;SDS011;32921;53.256;8.198;2024-01-07T05:20:51;212.88;;;199.95;;
47161;SDS011;32921;53.256;8.198;2024-01-07T05:23:17;207.82;;;195.23;;
47161;SDS011;32921;53.256;8.198;2024-01-07T05:25:43;216.07;;;202.88;;
47161;SDS011;32921;53.256;8.198;2024-01-07T05:28:13;241.05;;;225.98;;
47161;SDS011;32921;53.256;8.198;2024-01-07T05:30:39;215.30;;;201.90;;
47161;SDS011;32921;53.256;8.198;2024-01-07T05:33:05;213.85;;;200.80;;
47161;SDS011;32921;53.256;8.198;2024-01-07T05:35:30;200.52;;;188.30;;
47161;SDS011;32921;53.256;8.198;2024-01-07T05:37:56;209.10;;;196.55;;
47161;SDS011;32921;53.256;8.198;2024-01-07T05:40:22;208.88;;;196.15;;
47161;SDS011;32921;53.256;8.198;2024-01-07T05:42:48;249.57;;;233.95;;
47161;SDS011;32921;53.256;8.198;2024-01-07T05:45:13;283.02;;;264.13;;
47161;SDS011;32921;53.256;8.198;2024-01-07T05:47:39;231.77;;;217.75;;
47161;SDS011;32921;53.256;8.198;2024-01-07T05:50:06;216.00;;;202.75;;
47161;SDS011;32921;53.256;8.198;2024-01-07T05:52:32;206.18;;;193.35;;
47161;SDS011;32921;53.256;8.198;2024-01-07T05:54:58;220.50;;;207.23;;
47161;SDS011;32921;53.256;8.198;2024-01-07T05:57:23;208.80;;;196.18;;
47161;SDS011;32921;53.256;8.198;2024-01-07T05:59:49;231.77;;;217.55;;
47161;SDS011;32921;53.256;8.198;2024-01-07T06:02:15;294.20;;;275.42;;
47161;SDS011;32921;53.256;8.198;2024-01-07T06:04:42;210.10;;;197.23;;
47161;SDS011;32921;53.256;8.198;2024-01-07T06:07:08;217.23;;;204.25;;
47161;SDS011;32921;53.256;8.198;2024-01-07T06:09:33;215.20;;;202.15;;
47161;SDS011;32921;53.256;8.198;2024-01-07T06:11:59;223.73;;;209.95;;
47161;SDS011;32921;53.256;8.198;2024-01-07T06:14:25;214.82;;;201.98;;
47161;SDS011;32921;53.256;8.198;2024-01-07T06:16:51;227.27;;;213.65;;
47161;SDS011;32921;53.256;8.198;2024-01-07T06:19:17;229.13;;;215.32;;
47161;SDS011;32921;53.256;8.198;2024-01-07T06:21:43;220.43;;;207.02;;
47161;SDS011;32921;53.256;8.198;2024-01-07T06:24:09;217.02;;;203.65;;
47161;SDS011;32921;53.256;8.198;2024-01-07T06:26:34;243.88;;;228.75;;
47161;SDS011;32921;53.256;8.198;2024-01-07T06:29:00;225.95;;;212.02;;
47161;SDS011;32921;53.256;8.198;2024-01-07T06:31:26;281.88;;;263.30;;
47161;SDS011;32921;53.256;8.198;2024-01-07T06:33:52;262.08;;;245.90;;
47161;SDS011;32921;53.256;8.198;2024-01-07T06:36:18;252.63;;;237.00;;
47161;SDS011;32921;53.256;8.198;2024-01-07T06:38:43;254.65;;;238.80;;
47161;SDS011;32921;53.256;8.198;2024-01-07T06:41:09;239.38;;;224.63;;
47161;SDS011;32921;53.256;8.198;2024-01-07T06:43:36;247.95;;;232.57;;
47161;SDS011;32921;53.256;8.198;2024-01-07T06:46:02;278.48;;;259.63;;
47161;SDS011;32921;53.256;8.198;2024-01-07T06:48:27;235.63;;;221.02;;
47161;SDS011;32921;53.256;8.198;2024-01-07T06:50:53;286.70;;;268.42;;
47161;SDS011;32921;53.256;8.198;2024-01-07T06:53:19;251.35;;;234.63;;
47161;SDS011;32921;53.256;8.198;2024-01-07T06:55:44;225.30;;;211.02;;
47161;SDS011;32921;53.256;8.198;2024-01-07T06:58:10;247.32;;;231.57;;
47161;SDS011;32921;53.256;8.198;2024-01-07T07:00:35;319.40;;;298.95;;
47161;SDS011;32921;53.256;8.198;2024-01-07T07:03:01;340.60;;;317.85;;
47161;SDS011;32921;53.256;8.198;2024-01-07T07:05:26;291.40;;;272.88;;
47161;SDS011;32921;53.256;8.198;2024-01-07T07:07:52;298.08;;;278.58;;
47161;SDS011;32921;53.256;8.198;2024-01-07T07:10:18;274.35;;;256.80;;
47161;SDS011;32921;53.256;8.198;2024-01-07T07:12:43;307.30;;;287.85;;
47161;SDS011;32921;53.256;8.198;2024-01-07T07:15:09;271.80;;;255.07;;
47161;SDS011;32921;53.256;8.198;2024-01-07T07:17:35;274.90;;;257.92;;
47161;SDS011;32921;53.256;8.198;2024-01-07T07:20:04;283.45;;;265.77;;
47161;SDS011;32921;53.256;8.198;2024-01-07T07:22:30;330.60;;;309.92;;
47161;SDS011;32921;53.256;8.198;2024-01-07T07:24:56;340.75;;;319.75;;
47161;SDS011;32921;53.256;8.198;2024-01-07T07:27:21;306.60;;;287.80;;
47161;SDS011;32921;53.256;8.198;2024-01-07T07:29:47;355.45;;;332.77;;
47161;SDS011;32921;53.256;8.198;2024-01-07T07:32:13;320.48;;;300.63;;
47161;SDS011;32921;53.256;8.198;2024-01-07T07:34:38;330.05;;;309.58;;
47161;SDS011;32921;53.256;8.198;2024-01-07T07:37:04;322.13;;;302.25;;
47161;SDS011;32921;53.256;8.198;2024-01-07T07:39:29;376.73;;;352.75;;
47161;SDS011;32921;53.256;8.198;2024-01-07T07:41:55;352.58;;;330.63;;
47161;SDS011;32921;53.256;8.198;2024-01-07T07:44:20;339.55;;;318.52;;
47161;SDS011;32921;53.256;8.198;2024-01-07T07:46:46;331.38;;;310.50;;
47161;SDS011;32921;53.256;8.198;2024-01-07T07:49:12;360.45;;;337.45;;
47161;SDS011;32921;53.256;8.198;2024-01-07T07:51:38;358.08;;;335.90;;
47161;SDS011;32921;53.256;8.198;2024-01-07T07:54:04;353.33;;;330.98;;
47161;SDS011;32921;53.256;8.198;2024-01-07T07:56:29;345.90;;;324.33;;
47161;SDS011;32921;53.256;8.198;2024-01-07T07:58:55;364.95;;;342.27;;
47161;SDS011;32921;53.256;8.198;2024-01-07T08:01:20;360.77;;;337.25;;
47161;SDS011;32921;53.256;8.198;2024-01-07T08:03:46;328.13;;;307.92;;
47161;SDS011;32921;53.256;8.198;2024-01-07T08:06:11;368.38;;;345.48;;
47161;SDS011;32921;53.256;8.198;2024-01-07T08:08:37;359.27;;;336.75;;
47161;SDS011;32921;53.256;8.198;2024-01-07T08:11:03;444.70;;;415.95;;
47161;SDS011;32921;53.256;8.198;2024-01-07T08:13:32;438.98;;;409.98;;
47161;SDS011;32921;53.256;8.198;2024-01-07T08:16:00;421.45;;;394.00;;
47161;SDS011;32921;53.256;8.198;2024-01-07T08:18:25;457.27;;;427.02;;
47161;SDS011;32921;53.256;8.198;2024-01-07T08:20:51;389.60;;;364.85;;
47161;SDS011;32921;53.256;8.198;2024-01-07T08:23:16;415.27;;;388.55;;
47161;SDS011;32921;53.256;8.198;2024-01-07T08:25:42;414.05;;;387.33;;
47161;SDS011;32921;53.256;8.198;2024-01-07T08:28:10;440.05;;;411.45;;
47161;SDS011;32921;53.256;8.198;2024-01-07T08:30:35;493.35;;;460.23;;
47161;SDS011;32921;53.256;8.198;2024-01-07T08:33:01;456.38;;;426.52;;
47161;SDS011;32921;53.256;8.198;2024-01-07T08:35:26;484.23;;;452.33;;
47161;SDS011;32921;53.256;8.198;2024-01-07T08:37:52;493.67;;;460.08;;
47161;SDS011;32921;53.256;8.198;2024-01-07T08:40:17;488.27;;;455.75;;
47161;SDS011;32921;53.256;8.198;2024-01-07T08:42:44;544.88;;;507.77;;
47161;SDS011;32921;53.256;8.198;2024-01-07T08:45:10;486.38;;;453.67;;
47161;SDS011;32921;53.256;8.198;2024-01-07T08:47:36;468.50;;;437.40;;
47161;SDS011;32921;53.256;8.198;2024-01-07T08:50:02;475.92;;;444.45;;
47161;SDS011;32921;53.256;8.198;2024-01-07T08:52:28;471.02;;;439.63;;
47161;SDS011;32921;53.256;8.198;2024-01-07T08:54:54;465.42;;;434.83;;
47161;SDS011;32921;53.256;8.198;2024-01-07T08:57:20;503.60;;;470.05;;
47161;SDS011;32921;53.256;8.198;2024-01-07T08:59:45;491.48;;;458.95;;
47161;SDS011;32921;53.256;8.198;2024-01-07T09:02:11;518.83;;;483.60;;
47161;SDS011;32921;53.256;8.198;2024-01-07T09:04:37;501.30;;;467.95;;
47161;SDS011;32921;53.256;8.198;2024-01-07T09:07:03;527.58;;;491.38;;
47161;SDS011;32921;53.256;8.198;2024-01-07T09:09:28;637.35;;;592.17;;
47161;SDS011;32921;53.256;8.198;2024-01-07T09:11:54;371.42;;;348.35;;
47161;SDS011;32921;53.256;8.198;2024-01-07T09:14:21;447.40;;;418.00;;
47161;SDS011;32921;53.256;8.198;2024-01-07T09:16:47;488.40;;;455.80;;
47161;SDS011;32921;53.256;8.198;2024-01-07T09:19:13;436.48;;;407.38;;
47161;SDS011;32921;53.256;8.198;2024-01-07T09:21:38;406.50;;;380.42;;
47161;SDS011;32921;53.256;8.198;2024-01-07T09:24:04;453.92;;;423.98;;
47161;SDS011;32921;53.256;8.198;2024-01-07T09:26:30;438.35;;;408.73;;
47161;SDS011;32921;53.256;8.198;2024-01-07T09:28:56;477.13;;;444.40;;
47161;SDS011;32921;53.256;8.198;2024-01-07T09:31:22;409.00;;;382.50;;
47161;SDS011;32921;53.256;8.198;2024-01-07T09:33:47;476.50;;;443.55;;
47161;SDS011;32921;53.256;8.198;2024-01-07T09:36:13;384.77;;;359.75;;
47161;SDS011;32921;53.256;8.198;2024-01-07T09:38:39;364.98;;;340.75;;
47161;SDS011;32921;53.256;8.198;2024-01-07T09:41:05;347.80;;;325.40;;
47161;SDS011;32921;53.256;8.198;2024-01-07T09:43:31;344.73;;;322.98;;
47161;SDS011;32921;53.256;8.198;2024-01-07T09:45:56;415.42;;;386.67;;
47161;SDS011;32921;53.256;8.198;2024-01-07T09:48:23;303.30;;;284.17;;
47161;SDS011;32921;53.256;8.198;2024-01-07T09:50:49;287.08;;;269.02;;
47161;SDS011;32921;53.256;8.198;2024-01-07T09:53:17;360.02;;;336.65;;
47161;SDS011;32921;53.256;8.198;2024-01-07T09:55:52;352.25;;;329.33;;
47161;SDS011;32921;53.256;8.198;2024-01-07T09:58:35;323.17;;;302.38;;
47161;SDS011;32921;53.256;8.198;2024-01-07T10:01:01;376.45;;;351.02;;
47161;SDS011;32921;53.256;8.198;2024-01-07T10:03:26;341.40;;;318.98;;
47161;SDS011;32921;53.256;8.198;2024-01-07T10:05:52;349.23;;;327.17;;
47161;SDS011;32921;53.256;8.198;2024-01-07T10:08:18;364.65;;;341.10;;
47161;SDS011;32921;53.256;8.198;2024-01-07T10:10:44;345.88;;;323.73;;
47161;SDS011;32921;53.256;8.198;2024-01-07T10:13:10;326.30;;;305.45;;
47161;SDS011;32921;53.256;8.198;2024-01-07T10:15:36;371.40;;;345.77;;
47161;SDS011;32921;53.256;8.198;2024-01-07T10:18:04;326.90;;;306.17;;
47161;SDS011;32921;53.256;8.198;2024-01-07T10:20:32;332.10;;;309.65;;
47161;SDS011;32921;53.256;8.198;2024-01-07T10:23:01;263.80;;;247.75;;
47161;SDS011;32921;53.256;8.198;2024-01-07T10:25:28;291.30;;;272.92;;
47161;SDS011;32921;53.256;8.198;2024-01-07T10:28:00;294.48;;;276.23;;
47161;SDS011;32921;53.256;8.198;2024-01-07T10:30:27;387.02;;;361.38;;
47161;SDS011;32921;53.256;8.198;2024-01-07T10:32:59;356.90;;;333.52;;
47161;SDS011;32921;53.256;8.198;2024-01-07T10:35:32;345.85;;;323.98;;
47161;SDS011;32921;53.256;8.198;2024-01-07T10:37:59;338.90;;;316.92;;
47161;SDS011;32921;53.256;8.198;2024-01-07T10:40:26;369.52;;;345.48;;
47161;SDS011;32921;53.256;8.198;2024-01-07T10:42:52;376.83;;;351.30;;
47161;SDS011;32921;53.256;8.198;2024-01-07T10:45:20;413.63;;;384.60;;
47161;SDS011;32921;53.256;8.198;2024-01-07T10:47:48;344.23;;;322.25;;
47161;SDS011;32921;53.256;8.198;2024-01-07T10:50:18;343.50;;;321.17;;
47161;SDS011;32921;53.256;8.198;2024-01-07T10:52:53;413.85;;;386.02;;
47161;SDS011;32921;53.256;8.198;2024-01-07T10:55:25;328.95;;;308.02;;
47161;SDS011;32921;53.256;8.198;2024-01-07T10:57:54;318.45;;;298.67;;
47161;SDS011;32921;53.256;8.198;2024-01-07T11:00:22;392.30;;;366.33;;
47161;SDS011;32921;53.256;8.198;2024-01-07T11:02:52;337.45;;;315.92;;
47161;SDS011;32921;53.256;8.198;2024-01-07T11:08:44;248.02;;;233.07;;
47161;SDS011;32921;53.256;8.198;2024-01-07T11:11:23;277.52;;;260.45;;
47161;SDS011;32921;53.256;8.198;2024-01-07T11:13:51;273.98;;;257.25;;
47161;SDS011;32921;53.256;8.198;2024-01-07T11:19:15;279.77;;;261.45;;
47161;SDS011;32921;53.256;8.198;2024-01-07T11:21:40;372.45;;;347.85;;
47161;SDS011;32921;53.256;8.198;2024-01-07T11:24:06;416.50;;;387.05;;
47161;SDS011;32921;53.256;8.198;2024-01-07T11:26:32;357.23;;;333.67;;
47161;SDS011;32921;53.256;8.198;2024-01-07T11:28:57;475.00;;;442.38;;
47161;SDS011;32921;53.256;8.198;2024-01-07T11:31:43;337.73;;;316.25;;
47161;SDS011;32921;53.256;8.198;2024-01-07T11:37:12;294.38;;;276.48;;
47161;SDS011;32921;53.256;8.198;2024-01-07T11:39:42;414.27;;;386.27;;
47161;SDS011;32921;53.256;8.198;2024-01-07T11:42:09;327.70;;;306.20;;
47161;SDS011;32921;53.256;8.198;2024-01-07T11:44:35;465.02;;;431.92;;
47161;SDS011;32921;53.256;8.198;2024-01-07T11:47:04;375.08;;;350.10;;
47161;SDS011;32921;53.256;8.198;2024-01-07T11:49:31;507.95;;;469.63;;
47161;SDS011;32921;53.256;8.198;2024-01-07T11:51:58;320.05;;;299.27;;
47161;SDS011;32921;53.256;8.198;2024-01-07T11:54:23;387.98;;;362.35;;
47161;SDS011;32921;53.256;8.198;2024-01-07T11:56:49;321.65;;;300.73;;
47161;SDS011;32921;53.256;8.198;2024-01-07T11:59:14;367.20;;;342.33;;
47161;SDS011;32921;53.256;8.198;2024-01-07T12:01:40;418.13;;;389.85;;
47161;SDS011;32921;53.256;8.198;2024-01-07T12:04:05;354.02;;;331.05;;
47161;SDS011;32921;53.256;8.198;2024-01-07T12:06:32;366.25;;;341.75;;
47161;SDS011;32921;53.256;8.198;2024-01-07T12:08:58;417.77;;;390.00;;
47161;SDS011;32921;53.256;8.198;2024-01-07T12:11:24;410.20;;;382.33;;
47161;SDS011;32921;53.256;8.198;2024-01-07T12:13:49;392.10;;;366.27;;
47161;SDS011;32921;53.256;8.198;2024-01-07T12:16:15;332.55;;;311.35;;
47161;SDS011;32921;53.256;8.198;2024-01-07T12:18:41;394.80;;;368.83;;
47161;SDS011;32921;53.256;8.198;2024-01-07T12:21:07;319.38;;;298.90;;
47161;SDS011;32921;53.256;8.198;2024-01-07T12:23:36;361.08;;;337.38;;
47161;SDS011;32921;53.256;8.198;2024-01-07T12:26:08;355.45;;;332.10;;
47161;SDS011;32921;53.256;8.198;2024-01-07T12:28:35;401.63;;;374.65;;
47161;SDS011;32921;53.256;8.198;2024-01-07T12:31:02;594.28;;;550.65;;
47161;SDS011;32921;53.256;8.198;2024-01-07T12:33:29;423.98;;;395.30;;
47161;SDS011;32921;53.256;8.198;2024-01-07T12:35:56;387.20;;;361.48;;
47161;SDS011;32921;53.256;8.198;2024-01-07T12:38:25;385.55;;;359.77;;
47161;SDS011;32921;53.256;8.198;2024-01-07T12:40:52;452.10;;;421.38;;
47161;SDS011;32921;53.256;8.198;2024-01-07T12:43:18;527.33;;;489.35;;
47161;SDS011;32921;53.256;8.198;2024-01-07T12:45:45;381.42;;;355.58;;
47161;SDS011;32921;53.256;8.198;2024-01-07T12:48:11;318.08;;;297.63;;
47161;SDS011;32921;53.256;8.198;2024-01-07T12:50:37;390.33;;;363.92;;
47161;SDS011;32921;53.256;8.198;2024-01-07T12:53:03;376.00;;;350.25;;
47161;SDS011;32921;53.256;8.198;2024-01-07T12:55:28;369.52;;;344.58;;
47161;SDS011;32921;53.256;8.198;2024-01-07T12:57:54;333.77;;;312.13;;
47161;SDS011;32921;53.256;8.198;2024-01-07T13:00:21;328.52;;;307.42;;
47161;SDS011;32921;53.256;8.198;2024-01-07T13:02:47;455.05;;;423.20;;
47161;SDS011;32921;53.256;8.198;2024-01-07T13:05:13;380.73;;;354.70;;
47161;SDS011;32921;53.256;8.198;2024-01-07T13:07:39;315.63;;;295.45;;
47161;SDS011;32921;53.256;8.198;2024-01-07T13:10:05;402.10;;;374.85;;
47161;SDS011;32921;53.256;8.198;2024-01-07T13:12:31;399.20;;;372.83;;
47161;SDS011;32921;53.256;8.198;2024-01-07T13:14:56;387.77;;;360.88;;
47161;SDS011;32921;53.256;8.198;2024-01-07T13:17:22;415.77;;;388.60;;
47161;SDS011;32921;53.256;8.198;2024-01-07T13:19:48;383.60;;;358.35;;
47161;SDS011;32921;53.256;8.198;2024-01-07T13:22:13;352.30;;;329.42;;
47161;SDS011;32921;53.256;8.198;2024-01-07T13:24:39;380.90;;;356.33;;
47161;SDS011;32921;53.256;8.198;2024-01-07T13:27:06;367.25;;;343.65;;
47161;SDS011;32921;53.256;8.198;2024-01-07T13:29:33;338.65;;;316.77;;
47161;SDS011;32921;53.256;8.198;2024-01-07T13:31:59;348.75;;;326.65;;
47161;SDS011;32921;53.256;8.198;2024-01-07T13:34:24;411.42;;;383.85;;
47161;SDS011;32921;53.256;8.198;2024-01-07T13:36:50;366.77;;;343.85;;
47161;SDS011;32921;53.256;8.198;2024-01-07T13:39:17;423.35;;;395.98;;
47161;SDS011;32921;53.256;8.198;2024-01-07T13:41:42;371.63;;;347.77;;
47161;SDS011;32921;53.256;8.198;2024-01-07T13:44:09;359.38;;;336.88;;
47161;SDS011;32921;53.256;8.198;2024-01-07T13:46:42;318.95;;;298.95;;
47161;SDS011;32921;53.256;8.198;2024-01-07T13:49:09;342.40;;;320.77;;
47161;SDS011;32921;53.256;8.198;2024-01-07T13:51:35;394.48;;;368.73;;
47161;SDS011;32921;53.256;8.198;2024-01-07T13:54:02;394.40;;;368.67;;
47161;SDS011;32921;53.256;8.198;2024-01-07T13:56:28;350.00;;;328.20;;
47161;SDS011;32921;53.256;8.198;2024-01-07T13:58:54;375.90;;;351.60;;
47161;SDS011;32921;53.256;8.198;2024-01-07T14:01:21;396.45;;;371.10;;